Time;durP1;ratioP1;P1;durP2;ratioP2;P2;SDS_P1;SDS_P2;PMS_P1;PMS_P2;Temp;Humidity;BMP_temperature;BMP_pressure;BME280_temperature;BME280_humidity;BME280_pressure;Samples;Min_cycle;Max_cycle;Signal;HPM_P1;HPM_P2
2022/08/14 00:03:38;;;;;;;1.52;0.65;;;19.20;41.60;21.30;93580.00;;;;10426866;28;45321;-64
2022/08/14 00:08:58;;;;;;;0.98;0.60;;;19.20;41.80;21.30;93577.00;;;;10427022;28;45252;-64
2022/08/14 00:14:20;;;;;;;2.28;1.10;;;19.20;41.80;21.30;93589.00;;;;10425795;28;45340;-64
2022/08/14 00:19:41;;;;;;;2.10;1.40;;;19.20;42.00;21.30;93579.00;;;;10425942;28;45274;-64
2022/08/14 00:25:01;;;;;;;1.48;0.95;;;19.20;42.10;21.30;93579.00;;;;10425422;28;45189;-64
2022/08/14 00:30:23;;;;;;;1.60;1.00;;;19.20;42.00;21.30;93576.00;;;;10427404;28;45327;-63
2022/08/14 00:35:45;;;;;;;0.82;0.63;;;19.10;42.00;21.30;93584.00;;;;10425738;28;45420;-64
2022/08/14 00:41:08;;;;;;;0.70;0.70;;;19.10;41.80;21.20;93569.00;;;;10426955;28;45577;-64
2022/08/14 00:46:30;;;;;;;1.10;0.90;;;19.10;41.70;21.20;93560.00;;;;10430601;28;45419;-64
2022/08/14 00:51:51;;;;;;;1.40;0.93;;;19.10;41.60;21.20;93562.00;;;;10421453;28;45298;-64
2022/08/14 00:57:11;;;;;;;1.23;0.90;;;19.10;41.50;21.20;93561.00;;;;10420880;28;45456;-64
2022/08/14 01:02:36;;;;;;;0.77;0.73;;;19.00;41.30;21.20;93547.00;;;;10424676;28;45548;-65
2022/08/14 01:07:58;;;;;;;0.98;0.77;;;19.00;41.30;21.20;93543.00;;;;10428563;28;45444;-64
2022/08/14 01:13:22;;;;;;;1.42;1.02;;;19.10;41.20;21.20;93544.00;;;;10432486;28;45341;-63
2022/08/14 01:24:26;;;;;;;1.48;0.90;;;19.00;40.80;21.10;93534.00;;;;10431531;28;45206;-63
2022/08/14 01:29:51;;;;;;;1.20;0.85;;;19.00;40.80;21.10;93526.00;;;;10432431;28;45238;-64
2022/08/14 01:35:12;;;;;;;0.85;0.70;;;18.90;40.80;21.10;93521.00;;;;10428429;28;45215;-64
2022/08/14 01:40:34;;;;;;;0.70;0.70;;;18.90;40.80;21.10;93524.00;;;;10429085;28;45094;-64
2022/08/14 01:45:54;;;;;;;0.98;0.63;;;18.90;40.80;21.00;93499.00;;;;10434703;28;45450;-64
2022/08/14 01:51:19;;;;;;;1.38;0.63;;;18.90;41.10;21.00;93512.00;;;;10452768;28;45134;-64
2022/08/14 01:56:43;;;;;;;1.40;0.85;;;18.90;41.10;21.00;93502.00;;;;10431987;28;44694;-63
2022/08/14 02:02:11;;;;;;;1.70;0.80;;;18.90;41.10;20.90;93502.00;;;;10430709;28;45346;-63
2022/08/14 02:07:31;;;;;;;1.10;0.70;;;18.80;41.10;21.00;93468.00;;;;10432123;28;45463;-64
2022/08/14 02:12:53;;;;;;;1.08;0.88;;;18.80;41.10;21.00;93481.00;;;;10429843;28;45216;-63
2022/08/14 02:18:14;;;;;;;1.08;0.90;;;18.80;41.30;20.90;93455.00;;;;10430465;28;45301;-64
2022/08/14 02:23:34;;;;;;;1.08;0.70;;;18.80;41.50;21.00;93457.00;;;;10431063;28;45222;-64
2022/08/14 02:29:00;;;;;;;0.98;0.80;;;18.80;41.60;20.90;93436.00;;;;10428929;28;45237;-64
2022/08/14 02:34:23;;;;;;;1.08;0.70;;;18.80;41.80;21.00;93445.00;;;;10428678;28;45255;-64
2022/08/14 02:39:46;;;;;;;0.65;0.65;;;18.80;42.60;20.90;93426.00;;;;10430612;28;45589;-64
2022/08/14 02:45:09;;;;;;;0.70;0.70;;;18.80;42.00;20.90;93414.00;;;;10429802;28;45184;-64
2022/08/14 02:50:30;;;;;;;1.30;0.70;;;18.80;42.30;20.90;93408.00;;;;10442742;28;45192;-64
2022/08/14 02:55:50;;;;;;;0.75;0.75;;;18.80;42.30;21.00;93409.00;;;;10429791;28;45176;-64
2022/08/14 03:01:14;;;;;;;0.90;0.63;;;18.80;42.40;20.90;93392.00;;;;10429650;28;45228;-64
2022/08/14 03:06:35;;;;;;;0.93;0.65;;;18.80;42.60;20.90;93395.00;;;;10428304;28;45300;-64
2022/08/14 03:11:55;;;;;;;1.17;0.80;;;18.80;42.80;20.90;93379.00;;;;10428693;28;45120;-64
2022/08/14 03:17:17;;;;;;;1.58;0.60;;;18.80;42.90;20.90;93386.00;;;;10428278;28;45138;-64
2022/08/14 03:22:39;;;;;;;0.63;0.63;;;18.80;43.00;20.90;93383.00;;;;10428603;28;45411;-64
2022/08/14 03:28:04;;;;;;;0.85;0.80;;;18.70;42.90;20.90;93395.00;;;;10428437;28;45292;-65
2022/08/14 03:33:27;;;;;;;0.95;0.80;;;18.80;42.90;20.80;93374.00;;;;10427284;28;45309;-66
2022/08/14 03:38:52;;;;;;;0.80;0.70;;;18.70;43.10;20.80;93388.00;;;;10428309;28;45263;-65
2022/08/14 03:44:13;;;;;;;1.10;0.60;;;18.70;43.10;20.80;93387.00;;;;10427755;28;45320;-66
2022/08/14 03:49:36;;;;;;;1.50;0.90;;;18.70;43.20;20.80;93383.00;;;;10443278;28;45255;-64
2022/08/14 03:54:57;;;;;;;2.35;0.70;;;18.70;43.20;20.80;93384.00;;;;10427064;28;45152;-64
2022/08/14 04:00:18;;;;;;;0.77;0.68;;;18.70;43.80;20.80;93378.00;;;;10426159;28;45223;-65
2022/08/14 04:05:41;;;;;;;0.70;0.70;;;18.70;43.20;20.80;93393.00;;;;10426856;28;45299;-66
2022/08/14 04:11:02;;;;;;;1.00;0.80;;;18.70;43.30;20.80;93383.00;;;;10428630;28;45162;-65
2022/08/14 04:16:22;;;;;;;1.23;0.80;;;18.60;43.40;20.80;93380.00;;;;10425699;28;45114;-66
2022/08/14 04:21:45;;;;;;;1.92;0.75;;;18.60;43.30;20.70;93373.00;;;;10428015;28;45481;-65
2022/08/14 04:27:07;;;;;;;1.15;0.80;;;18.60;43.40;20.70;93369.00;;;;10426338;28;45344;-65
2022/08/14 04:32:27;;;;;;;1.90;0.80;;;18.60;43.50;20.70;93379.00;;;;10428312;28;45149;-63
2022/08/14 04:43:38;;;;;;;0.90;0.70;;;18.50;43.60;20.70;93400.00;;;;10426597;28;45276;-65
2022/08/14 04:48:59;;;;;;;1.23;0.90;;;18.50;43.50;20.70;93399.00;;;;10449293;28;45146;-66
2022/08/14 04:54:21;;;;;;;1.42;0.95;;;18.50;43.60;20.70;93404.00;;;;10422166;28;45406;-66
2022/08/14 04:59:41;;;;;;;1.20;0.70;;;18.60;43.60;20.60;93395.00;;;;10432609;28;45244;-65
2022/08/14 05:05:02;;;;;;;1.10;0.80;;;18.50;43.70;20.60;93404.00;;;;10434317;28;45278;-65
2022/08/14 05:10:24;;;;;;;1.02;0.90;;;18.50;43.80;20.60;93391.00;;;;10433474;28;45685;-66
2022/08/14 05:15:46;;;;;;;0.93;0.68;;;18.40;43.90;20.60;93387.00;;;;10430501;28;45304;-65
2022/08/14 05:21:09;;;;;;;1.00;0.88;;;18.50;44.10;20.60;93360.00;;;;10432984;28;45228;-66
2022/08/14 05:26:31;;;;;;;1.00;0.70;;;18.40;44.30;20.60;93371.00;;;;10439448;28;45193;-65
2022/08/14 05:31:54;;;;;;;1.02;0.80;;;18.40;44.40;20.60;93343.00;;;;10432169;28;45496;-64
2022/08/14 05:37:15;;;;;;;1.13;0.80;;;18.40;44.60;20.60;93329.00;;;;10431910;28;45133;-62
2022/08/14 05:42:37;;;;;;;0.85;0.65;;;18.50;44.70;20.60;93326.00;;;;10432051;28;45196;-67
2022/08/14 05:47:58;;;;;;;0.98;0.80;;;18.40;44.90;20.60;93327.00;;;;10432757;28;45224;-66
2022/08/14 05:53:18;;;;;;;1.17;0.70;;;18.50;44.90;20.70;93309.00;;;;10432654;28;45182;-66
2022/08/14 05:58:40;;;;;;;1.50;0.73;;;18.50;44.80;20.70;93309.00;;;;10431955;28;45160;-65
2022/08/14 06:04:01;;;;;;;1.27;0.88;;;18.50;44.90;20.70;93301.00;;;;10429950;28;45284;-62
2022/08/14 06:09:21;;;;;;;1.15;0.80;;;18.60;44.80;20.70;93305.00;;;;10429552;28;45317;-62
2022/08/14 06:14:43;;;;;;;1.05;0.75;;;18.60;44.80;20.70;93299.00;;;;10436884;28;45439;-61
2022/08/14 06:20:05;;;;;;;1.58;0.60;;;18.70;44.80;20.80;93304.00;;;;10438193;28;45455;-63
2022/08/14 06:25:26;;;;;;;1.17;0.80;;;18.70;44.80;20.70;93306.00;;;;10445669;28;45188;-65
2022/08/14 06:30:49;;;;;;;1.15;0.80;;;18.70;44.80;20.80;93318.00;;;;10438751;28;45244;-62
2022/08/14 06:36:09;;;;;;;1.25;0.90;;;18.80;44.90;20.80;93326.00;;;;10438592;28;45269;-62
2022/08/14 06:41:30;;;;;;;1.40;0.77;;;18.70;44.90;20.80;93328.00;;;;10427069;28;45483;-64
2022/08/14 06:46:52;;;;;;;1.95;0.90;;;18.70;44.80;20.80;93323.00;;;;10436578;28;45215;-64
2022/08/14 06:52:13;;;;;;;1.20;0.80;;;18.80;44.80;20.80;93323.00;;;;10437447;28;45232;-62
2022/08/14 06:57:38;;;;;;;0.90;0.85;;;18.80;44.90;20.80;93343.00;;;;10411584;28;45276;-64
2022/08/14 07:08:39;;;;;;;1.10;0.80;;;18.80;45.20;20.80;93336.00;;;;10435832;28;45204;-64
2022/08/14 07:13:59;;;;;;;0.73;0.70;;;18.80;45.40;20.80;93331.00;;;;10436213;28;45348;-64
2022/08/14 07:19:22;;;;;;;1.02;0.80;;;18.70;45.60;20.80;93348.00;;;;10435598;28;46094;-66
2022/08/14 07:24:43;;;;;;;1.70;0.90;;;18.80;45.70;20.80;93355.00;;;;10433924;28;45223;-64
2022/08/14 07:30:04;;;;;;;1.23;0.90;;;18.80;45.90;20.80;93351.00;;;;10451065;28;45458;-64
2022/08/14 07:35:27;;;;;;;1.02;0.77;;;18.80;46.00;20.90;93385.00;;;;10423423;28;45254;-64
2022/08/14 07:40:49;;;;;;;0.88;0.88;;;18.80;46.10;20.90;93382.00;;;;10432077;28;45377;-64
2022/08/14 07:46:09;;;;;;;1.08;0.80;;;18.80;46.00;20.80;93330.00;;;;10432842;28;45232;-66
2022/08/14 07:51:31;;;;;;;1.45;0.80;;;18.90;46.10;20.90;93320.00;;;;10428873;28;45354;-65
2022/08/14 07:56:51;;;;;;;0.82;0.80;;;18.80;46.10;20.90;93325.00;;;;10427835;28;45169;-66
2022/08/14 08:02:14;;;;;;;2.03;0.85;;;18.90;46.30;20.90;93344.00;;;;10429139;28;44929;-66
2022/08/14 08:07:38;;;;;;;1.02;0.70;;;18.90;47.10;20.90;93333.00;;;;10432763;28;45256;-64
2022/08/14 08:13:02;;;;;;;0.95;0.80;;;18.90;46.70;20.90;93348.00;;;;10431081;28;45189;-66
2022/08/14 08:18:25;;;;;;;1.50;0.90;;;18.90;46.90;21.00;93332.00;;;;10426977;28;45299;-66
2022/08/14 08:23:47;;;;;;;1.00;0.85;;;18.90;46.90;21.10;93333.00;;;;10427597;28;45260;-65
2022/08/14 08:29:08;;;;;;;0.88;0.70;;;18.90;46.60;21.10;93313.00;;;;10426936;28;45160;-65
2022/08/14 08:34:29;;;;;;;3.78;1.05;;;19.00;46.60;21.00;93324.00;;;;10427306;28;45117;-65
2022/08/14 08:39:51;;;;;;;5.10;1.05;;;18.90;47.10;21.10;93328.00;;;;10427250;28;45168;-64
2022/08/14 08:45:16;;;;;;;4.75;1.10;;;19.00;47.20;21.10;93326.00;;;;10426911;28;45410;-64
2022/08/14 08:50:39;;;;;;;1.58;0.95;;;19.00;47.20;21.10;93329.00;;;;10426565;28;45225;-62
2022/08/14 08:56:02;;;;;;;2.10;0.90;;;19.00;47.20;21.10;93329.00;;;;10415860;28;45217;-66
2022/08/14 09:01:29;;;;;;;2.17;0.80;;;19.00;47.20;21.10;93333.00;;;;10424401;28;45189;-63
2022/08/14 09:06:50;;;;;;;2.20;0.98;;;19.00;47.10;21.20;93337.00;;;;10440228;28;45309;-65
2022/08/14 09:12:13;;;;;;;3.53;0.80;;;19.00;46.90;21.20;93348.00;;;;10423499;28;45066;-66
2022/08/14 09:17:35;;;;;;;2.90;1.23;;;19.10;47.00;21.20;93348.00;;;;10426474;28;45349;-65
2022/08/14 09:22:57;;;;;;;2.25;0.75;;;19.10;47.00;21.30;93336.00;;;;10430014;28;45161;-65
2022/08/14 09:28:21;;;;;;;1.30;0.70;;;19.20;47.30;21.30;93326.00;;;;10418721;28;45131;-66
2022/08/14 09:34:01;;;;;;;0.88;0.60;;;19.20;47.50;21.30;93322.00;;;;10436386;28;45239;-64
2022/08/14 09:39:41;;;;;;;1.48;0.70;;;19.20;47.70;21.30;93313.00;;;;10442469;28;45125;-65
2022/08/14 09:45:16;;;;;;;1.85;0.70;;;19.20;47.50;21.30;93310.00;;;;10434159;28;45184;-63
2022/08/14 09:50:48;;;;;;;1.52;0.80;;;19.20;47.60;21.30;93309.00;;;;10440210;28;45382;-64
2022/08/14 09:56:09;;;;;;;0.77;0.60;;;19.30;47.60;21.40;93311.00;;;;10438760;28;45086;-63
2022/08/14 10:01:39;;;;;;;1.95;0.70;;;19.30;47.30;21.40;93310.00;;;;10433584;28;45308;-64
2022/08/14 10:07:00;;;;;;;1.27;0.80;;;19.30;47.30;21.40;93315.00;;;;10437330;28;45204;-64
2022/08/14 10:12:21;;;;;;;0.82;0.80;;;19.30;47.10;21.40;93313.00;;;;10429449;28;45207;-63
2022/08/14 10:17:42;;;;;;;1.27;0.80;;;19.30;47.10;21.40;93306.00;;;;10442033;28;45381;-64
2022/08/14 10:23:15;;;;;;;0.80;0.60;;;19.30;47.10;21.40;93297.00;;;;10431019;28;45374;-65
2022/08/14 10:28:41;;;;;;;0.98;0.70;;;19.30;47.10;21.40;93303.00;;;;10428744;28;45303;-63
2022/08/14 10:34:06;;;;;;;0.90;0.70;;;19.30;47.00;21.50;93292.00;;;;10434056;28;45192;-66
2022/08/14 10:39:27;;;;;;;0.90;0.70;;;19.30;47.00;21.50;93281.00;;;;10430786;28;46088;-63
2022/08/14 10:44:49;;;;;;;1.45;0.70;;;19.30;47.00;21.50;93278.00;;;;10435458;28;45332;-63
2022/08/14 10:50:13;;;;;;;0.95;0.80;;;19.30;47.00;21.50;93270.00;;;;10435399;28;45247;-64
2022/08/14 10:55:38;;;;;;;0.93;0.80;;;19.40;47.00;21.50;93258.00;;;;10434697;28;45506;-63
2022/08/14 11:01:06;;;;;;;1.08;0.75;;;19.40;47.00;21.50;93274.00;;;;10430310;28;45155;-64
2022/08/14 11:06:30;;;;;;;1.48;0.80;;;19.40;46.90;21.50;93268.00;;;;10452617;28;45259;-63
2022/08/14 11:11:56;;;;;;;0.90;0.70;;;19.40;46.90;21.50;93279.00;;;;10437037;28;45149;-65
2022/08/14 11:17:16;;;;;;;0.65;0.65;;;19.40;46.80;21.50;93282.00;;;;10426934;28;45168;-62
2022/08/14 11:22:41;;;;;;;1.20;0.77;;;19.40;46.80;21.50;93284.00;;;;10429539;28;45181;-63
2022/08/14 11:28:04;;;;;;;0.85;0.63;;;19.40;46.70;21.60;93280.00;;;;10426716;28;45300;-62
2022/08/14 11:33:29;;;;;;;1.20;1.00;;;19.40;46.90;21.50;93292.00;;;;10418439;28;45205;-62
2022/08/14 11:38:51;;;;;;;1.20;0.82;;;19.50;47.20;21.60;93283.00;;;;10429904;28;45169;-62
2022/08/14 11:44:11;;;;;;;1.48;1.10;;;19.50;47.40;21.60;93292.00;;;;10429181;28;45136;-62
2022/08/14 11:49:32;;;;;;;1.33;1.10;;;19.50;47.60;21.60;93296.00;;;;10429042;28;45132;-64
2022/08/14 11:54:59;;;;;;;1.63;1.17;;;19.50;48.00;21.60;93288.00;;;;10424900;28;45197;-64
2022/08/14 12:00:20;;;;;;;1.30;1.20;;;19.50;48.00;21.60;93291.00;;;;10428135;28;45324;-64
2022/08/14 12:05:41;;;;;;;2.00;1.30;;;19.50;48.20;21.60;93301.00;;;;10428447;28;45152;-64
2022/08/14 12:11:05;;;;;;;2.70;1.30;;;19.60;48.40;21.70;93300.00;;;;10423851;28;45236;-64
2022/08/14 12:16:26;;;;;;;1.90;1.30;;;19.50;48.30;21.60;93287.00;;;;10424581;28;45160;-65
2022/08/14 12:21:51;;;;;;;1.88;1.20;;;19.60;48.40;21.70;93290.00;;;;10428636;28;45434;-64
2022/08/14 12:27:13;;;;;;;2.45;1.35;;;19.60;48.60;21.70;93274.00;;;;10426831;28;45331;-65
2022/08/14 12:32:42;;;;;;;1.90;1.48;;;19.50;48.30;21.70;93281.00;;;;10427581;28;45153;-64
2022/08/14 12:38:02;;;;;;;1.63;1.38;;;19.50;48.20;21.70;93279.00;;;;10427226;28;45363;-65
2022/08/14 12:43:24;;;;;;;1.40;1.30;;;19.60;48.10;21.70;93267.00;;;;10427066;28;45227;-65
2022/08/14 12:48:46;;;;;;;2.00;1.33;;;19.60;48.30;21.70;93259.00;;;;10426175;28;45406;-65
2022/08/14 12:54:14;;;;;;;2.35;1.30;;;19.60;48.30;21.70;93263.00;;;;10424610;28;45228;-66
2022/08/14 12:59:37;;;;;;;2.17;1.45;;;19.60;48.40;21.70;93249.00;;;;10426399;28;45180;-66
2022/08/14 13:04:59;;;;;;;1.98;1.30;;;19.50;48.10;21.70;93257.00;;;;10430354;28;45266;-66
2022/08/14 13:10:21;;;;;;;1.92;1.35;;;19.60;49.10;21.80;93253.00;;;;10440091;28;45225;-65
2022/08/14 13:15:44;;;;;;;1.80;1.38;;;19.60;48.20;21.70;93250.00;;;;10433718;28;45196;-62
2022/08/14 13:21:05;;;;;;;2.25;1.27;;;19.60;48.00;21.80;93257.00;;;;10431664;28;45272;-63
2022/08/14 13:26:26;;;;;;;1.55;1.35;;;19.60;48.00;21.80;93260.00;;;;10433061;28;45180;-63
2022/08/14 13:31:52;;;;;;;2.08;1.42;;;19.60;48.00;21.80;93250.00;;;;10433231;28;45265;-65
2022/08/14 13:37:14;;;;;;;1.77;1.48;;;19.60;48.10;21.80;93228.00;;;;10432887;28;45196;-66
2022/08/14 13:42:35;;;;;;;3.20;1.80;;;19.60;48.00;21.80;93237.00;;;;10432740;28;45431;-66
2022/08/14 13:47:57;;;;;;;2.15;1.42;;;19.70;48.80;21.80;93238.00;;;;10432283;28;45183;-65
2022/08/14 13:53:19;;;;;;;2.75;1.50;;;19.60;48.10;21.80;93230.00;;;;10431154;28;45264;-65
2022/08/14 13:58:43;;;;;;;2.28;1.40;;;19.60;47.90;21.70;93232.00;;;;10430704;28;45161;-64
2022/08/14 14:04:06;;;;;;;2.45;1.60;;;19.60;47.50;21.80;93225.00;;;;10431857;28;45205;-65
2022/08/14 14:09:30;;;;;;;1.70;1.30;;;19.60;47.50;21.70;93206.00;;;;10439694;28;45257;-65
2022/08/14 14:14:52;;;;;;;2.60;1.27;;;19.50;47.50;21.70;93210.00;;;;10435236;28;45395;-64
2022/08/14 14:20:16;;;;;;;1.67;1.30;;;19.50;47.50;21.70;93200.00;;;;10420566;28;45389;-65
2022/08/14 14:25:42;;;;;;;2.08;1.30;;;19.60;47.50;21.70;93210.00;;;;10431564;28;45150;-65
2022/08/14 14:31:03;;;;;;;2.05;1.48;;;19.60;47.50;21.70;93210.00;;;;10431897;28;45182;-66
2022/08/14 14:36:31;;;;;;;2.67;1.48;;;19.60;47.50;21.70;93199.00;;;;10432193;28;45154;-65
2022/08/14 14:41:55;;;;;;;2.35;1.55;;;19.60;47.50;21.70;93205.00;;;;10431595;28;45121;-65
2022/08/14 14:47:17;;;;;;;4.60;2.03;;;19.50;47.30;21.70;93183.00;;;;10430271;28;45263;-65
2022/08/14 14:52:41;;;;;;;3.03;1.92;;;19.60;47.30;21.70;93183.00;;;;10431416;28;45197;-65
2022/08/14 14:58:01;;;;;;;2.40;1.52;;;19.60;47.30;21.70;93194.00;;;;10430413;28;45328;-66
2022/08/14 15:03:22;;;;;;;3.22;1.90;;;19.60;47.30;21.70;93203.00;;;;10426655;28;45201;-65
2022/08/14 15:08:45;;;;;;;1.88;1.40;;;19.60;47.50;21.70;93177.00;;;;10425513;28;45237;-64
2022/08/14 15:14:05;;;;;;;3.00;1.55;;;19.60;47.50;21.70;93200.00;;;;10426069;28;45200;-66
2022/08/14 15:19:26;;;;;;;2.78;1.50;;;19.60;47.50;21.70;93205.00;;;;10428604;28;45264;-62
2022/08/14 15:24:49;;;;;;;1.92;1.30;;;19.50;47.60;21.70;93209.00;;;;10426438;28;45310;-66
2022/08/14 15:30:11;;;;;;;2.75;1.60;;;19.60;47.60;21.70;93231.00;;;;10428471;28;45401;-65
2022/08/14 15:35:32;;;;;;;1.92;1.38;;;19.50;47.60;21.70;93232.00;;;;10427742;28;45238;-65
2022/08/14 15:40:55;;;;;;;1.75;1.35;;;19.60;47.70;21.70;93215.00;;;;10427980;28;45201;-66
2022/08/14 15:46:16;;;;;;;2.03;1.50;;;19.60;47.70;21.60;93235.00;;;;10428015;28;45471;-64
2022/08/14 15:51:36;;;;;;;1.58;1.20;;;19.50;47.70;21.70;93213.00;;;;10428181;28;45179;-65
2022/08/14 15:57:03;;;;;;;1.90;1.20;;;19.50;47.70;21.60;93223.00;;;;10417323;28;45401;-66
2022/08/14 16:02:26;;;;;;;2.35;1.40;;;19.60;47.90;21.60;93211.00;;;;10426162;28;45374;-65
2022/08/14 16:07:47;;;;;;;1.60;1.30;;;19.50;48.70;21.60;93206.00;;;;10434248;28;45290;-66
2022/08/14 16:13:08;;;;;;;2.10;1.27;;;19.50;49.10;21.60;93219.00;;;;10428088;28;45227;-66
2022/08/14 16:18:36;;;;;;;2.78;1.40;;;19.50;48.40;21.70;93213.00;;;;10426940;28;45236;-66
2022/08/14 16:23:57;;;;;;;3.67;1.40;;;19.50;48.30;21.70;93213.00;;;;10426241;28;45351;-66
2022/08/14 16:29:19;;;;;;;2.05;1.42;;;19.50;48.30;21.70;93192.00;;;;10427682;28;45301;-66
2022/08/14 16:34:41;;;;;;;2.42;1.50;;;19.50;48.40;21.60;93204.00;;;;10427575;28;45272;-66
2022/08/14 16:40:02;;;;;;;2.75;1.40;;;19.60;48.60;21.70;93209.00;;;;10426884;28;45255;-66
2022/08/14 16:45:26;;;;;;;2.65;1.20;;;19.50;48.50;21.60;93194.00;;;;10427233;28;45152;-66
2022/08/14 16:50:49;;;;;;;2.33;1.30;;;19.50;48.50;21.60;93177.00;;;;10423554;28;45360;-66
2022/08/14 16:56:13;;;;;;;2.13;1.30;;;19.50;48.60;21.70;93173.00;;;;10424891;28;45196;-66
2022/08/14 17:01:36;;;;;;;3.35;1.17;;;19.50;48.80;21.60;93188.00;;;;10426899;28;45229;-66
2022/08/14 17:06:59;;;;;;;1.88;1.33;;;19.40;48.70;21.70;93189.00;;;;10441032;28;45181;-66
2022/08/14 17:12:24;;;;;;;1.73;1.20;;;19.50;48.70;21.70;93194.00;;;;10427116;28;45157;-65
2022/08/14 17:17:48;;;;;;;4.80;1.38;;;19.50;48.80;21.70;93174.00;;;;10424980;28;45133;-65
2022/08/14 17:23:09;;;;;;;2.17;1.33;;;19.50;48.80;21.70;93175.00;;;;10426147;28;45214;-65
2022/08/14 17:28:30;;;;;;;2.50;1.25;;;19.50;48.70;21.70;93184.00;;;;10425761;28;45226;-65
2022/08/14 17:33:53;;;;;;;1.83;1.23;;;19.50;48.80;21.70;93181.00;;;;10426181;28;45213;-65
2022/08/14 17:39:16;;;;;;;1.50;1.30;;;19.50;48.70;21.60;93175.00;;;;10425839;28;45173;-65
2022/08/14 17:44:38;;;;;;;2.72;1.35;;;19.50;48.80;21.60;93197.00;;;;10425361;28;45264;-65
2022/08/14 17:50:02;;;;;;;2.33;1.30;;;19.50;48.80;21.60;93198.00;;;;10426405;28;45714;-65
2022/08/14 17:55:22;;;;;;;2.83;1.27;;;19.50;49.10;21.70;93199.00;;;;10434632;28;45156;-65
2022/08/14 18:00:43;;;;;;;3.55;1.20;;;19.50;49.10;21.60;93195.00;;;;10432511;28;45331;-65
2022/08/14 18:06:06;;;;;;;3.00;1.27;;;19.50;49.20;21.70;93191.00;;;;10433195;28;45185;-65
2022/08/14 18:11:27;;;;;;;2.20;1.30;;;19.50;49.40;21.60;93191.00;;;;10432882;28;45274;-65
2022/08/14 18:16:48;;;;;;;2.05;1.20;;;19.50;49.40;21.60;93184.00;;;;10430667;28;45265;-65
2022/08/14 18:22:11;;;;;;;2.78;1.35;;;19.50;49.40;21.70;93185.00;;;;10432319;28;45320;-65
2022/08/14 18:27:39;;;;;;;2.03;1.35;;;19.50;49.40;21.70;93173.00;;;;10430100;28;45138;-65
2022/08/14 18:33:15;;;;;;;1.88;1.13;;;19.50;49.60;21.70;93182.00;;;;10430284;28;45291;-65
2022/08/14 18:38:37;;;;;;;2.33;1.20;;;19.50;49.60;21.60;93196.00;;;;10430316;28;45240;-65
2022/08/14 18:43:58;;;;;;;2.65;1.10;;;19.50;49.60;21.70;93200.00;;;;10429850;28;45308;-65
2022/08/14 18:49:19;;;;;;;2.55;1.20;;;19.50;49.70;21.60;93198.00;;;;10427996;28;45227;-64
2022/08/14 18:54:41;;;;;;;1.98;1.35;;;19.50;49.60;21.60;93205.00;;;;10430575;28;45289;-64
2022/08/14 19:00:50;;;;;;;1.77;1.13;;;19.50;50.30;21.60;93197.00;;;;10429420;28;44661;-65
2022/08/14 19:06:11;;;;;;;3.72;1.10;;;19.50;50.80;21.60;93206.00;;;;10428318;28;45335;-65
2022/08/14 19:11:47;;;;;;;2.75;1.35;;;19.50;51.20;21.60;93209.00;;;;10429917;28;45346;-65
2022/08/14 19:17:44;;;;;;;1.33;0.98;;;19.50;51.70;21.60;93215.00;;;;10429160;28;45292;-65
2022/08/14 19:23:17;;;;;;;2.03;1.25;;;19.50;51.20;21.60;93225.00;;;;10430348;28;45523;-65
2022/08/14 19:28:45;;;;;;;1.50;1.00;;;19.50;51.30;21.60;93218.00;;;;10419820;28;45263;-65
2022/08/14 19:34:08;;;;;;;2.47;1.10;;;19.50;51.30;21.60;93219.00;;;;10429202;28;45200;-64
2022/08/14 19:39:50;;;;;;;2.45;1.15;;;19.50;51.50;21.60;93235.00;;;;10429735;28;45242;-65
2022/08/14 19:45:14;;;;;;;2.15;1.00;;;19.50;51.90;21.50;93231.00;;;;10436504;28;45208;-65
2022/08/14 19:50:36;;;;;;;2.00;1.02;;;19.50;51.80;21.50;93229.00;;;;10430393;28;45160;-65
2022/08/14 19:56:00;;;;;;;2.15;1.02;;;19.50;52.00;21.50;93227.00;;;;10427898;28;45228;-65
2022/08/14 20:01:28;;;;;;;1.83;0.93;;;19.50;52.10;21.50;93210.00;;;;10429911;28;45215;-65
2022/08/14 20:06:51;;;;;;;2.40;1.17;;;19.50;52.40;21.50;93207.00;;;;10426378;28;45239;-65
2022/08/14 20:12:19;;;;;;;2.67;1.30;;;19.40;52.40;21.50;93207.00;;;;10425179;28;45196;-66
2022/08/14 20:17:49;;;;;;;2.42;1.10;;;19.50;52.70;21.50;93208.00;;;;10420845;28;45277;-66
2022/08/14 20:23:13;;;;;;;3.50;0.90;;;19.40;52.80;21.50;93208.00;;;;10427392;28;45215;-66
2022/08/14 20:28:33;;;;;;;1.30;1.00;;;19.40;52.90;21.50;93204.00;;;;10427668;28;45242;-65
2022/08/14 20:34:06;;;;;;;1.73;0.95;;;19.50;53.10;21.50;93219.00;;;;10428198;28;45231;-66
2022/08/14 20:39:28;;;;;;;2.15;1.00;;;19.40;53.10;21.50;93218.00;;;;10427459;28;45304;-65
2022/08/14 20:50:29;;;;;;;3.20;1.05;;;19.40;53.00;21.50;93199.00;;;;10427226;28;45125;-66
2022/08/14 20:55:52;;;;;;;2.53;0.98;;;19.40;53.00;21.50;93201.00;;;;10427451;28;45303;-66
2022/08/14 21:01:32;;;;;;;2.58;0.90;;;19.40;53.30;21.50;93215.00;;;;10427598;28;45280;-66
2022/08/14 21:06:56;;;;;;;3.15;1.20;;;19.40;53.80;21.50;93212.00;;;;10427201;28;45213;-66
2022/08/14 21:12:18;;;;;;;3.28;1.00;;;19.40;53.90;21.50;93215.00;;;;10426906;28;45216;-66
2022/08/14 21:17:41;;;;;;;1.25;0.98;;;19.40;53.90;21.50;93218.00;;;;10428027;28;45340;-66
2022/08/14 21:23:02;;;;;;;2.67;0.93;;;19.40;54.20;21.50;93213.00;;;;10450387;28;45459;-66
2022/08/14 21:28:23;;;;;;;2.58;1.00;;;19.40;54.50;21.50;93220.00;;;;10422049;28;45142;-66
2022/08/14 21:33:46;;;;;;;2.00;1.00;;;19.40;54.30;21.50;93208.00;;;;10433337;28;45176;-66
2022/08/14 21:39:08;;;;;;;2.17;0.90;;;19.40;54.30;21.50;93232.00;;;;10434179;28;45209;-66
2022/08/14 21:44:31;;;;;;;4.78;1.02;;;19.40;54.20;21.40;93230.00;;;;10433528;28;45232;-65
2022/08/14 21:49:54;;;;;;;1.50;0.90;;;19.40;54.30;21.50;93233.00;;;;10433384;28;45290;-66
2022/08/14 21:55:19;;;;;;;1.73;1.02;;;19.40;54.30;21.50;93243.00;;;;10432686;28;45232;-66
2022/08/14 22:00:41;;;;;;;1.63;0.82;;;19.40;54.20;21.50;93227.00;;;;10433605;28;45214;-66
2022/08/14 22:06:03;;;;;;;1.60;0.80;;;19.40;54.30;21.50;93250.00;;;;10423882;28;44648;-66
2022/08/14 22:11:24;;;;;;;1.75;0.98;;;19.40;54.50;21.50;93241.00;;;;10432171;28;45107;-66
2022/08/14 22:16:46;;;;;;;1.08;0.90;;;19.40;54.40;21.50;93254.00;;;;10430700;28;45207;-66
2022/08/14 22:22:08;;;;;;;3.20;1.00;;;19.30;54.20;21.50;93260.00;;;;10447724;28;45213;-66
2022/08/14 22:27:30;;;;;;;1.70;1.00;;;19.40;54.00;21.50;93266.00;;;;10438213;28;45314;-66
2022/08/14 22:32:51;;;;;;;1.45;0.93;;;19.40;53.50;21.50;93282.00;;;;10431593;28;45366;-65
2022/08/14 22:38:13;;;;;;;0.80;0.65;;;19.40;53.40;21.50;93286.00;;;;10430059;28;45245;-66
2022/08/14 22:43:33;;;;;;;3.25;1.00;;;19.40;53.10;21.60;93294.00;;;;10431488;28;45190;-66
2022/08/14 22:48:54;;;;;;;1.48;0.77;;;19.40;53.10;21.60;93270.00;;;;10431681;28;45182;-66
2022/08/14 22:54:16;;;;;;;1.05;0.80;;;19.40;53.00;21.60;93289.00;;;;10430758;28;45150;-66
2022/08/14 22:59:37;;;;;;;1.35;0.90;;;19.40;52.90;21.60;93279.00;;;;10433869;28;45375;-65
2022/08/14 23:05:03;;;;;;;1.10;0.73;;;19.40;53.30;21.60;93281.00;;;;10437271;28;45327;-65
2022/08/14 23:10:25;;;;;;;1.58;0.90;;;19.50;53.80;21.60;93279.00;;;;10429678;28;45127;-66
2022/08/14 23:15:46;;;;;;;0.80;0.70;;;19.50;54.00;21.60;93276.00;;;;10430525;28;45271;-66
2022/08/14 23:21:09;;;;;;;1.02;0.65;;;19.40;54.00;21.60;93291.00;;;;10429587;28;45236;-66
2022/08/14 23:26:35;;;;;;;1.13;0.73;;;19.50;53.90;21.60;93288.00;;;;10430201;28;45252;-65
2022/08/14 23:31:56;;;;;;;2.35;0.80;;;19.50;55.60;21.50;93253.00;;;;10430300;28;45300;-65
2022/08/14 23:37:18;;;;;;;0.88;0.68;;;19.40;57.50;21.40;93233.00;;;;10429354;28;45193;-66
2022/08/14 23:42:40;;;;;;;3.65;0.82;;;19.30;58.90;21.40;93226.00;;;;10429565;28;45276;-65
2022/08/14 23:48:02;;;;;;;1.10;0.70;;;19.20;59.50;21.30;93237.00;;;;10428515;28;45294;-66
2022/08/14 23:53:28;;;;;;;1.00;0.70;;;19.20;59.40;21.40;93262.00;;;;10430131;28;45477;-66
2022/08/14 23:58:51;;;;;;;1.53;0.60;;;19.20;58.90;21.30;93256.00;;;;10430171;28;45205;-64
